Time;durP1;ratioP1;P1;durP2;ratioP2;P2;SDS_P1;SDS_P2;PMS_P1;PMS_P2;Temp;Humidity;BMP_temperature;BMP_pressure;BME280_temperature;BME280_humidity;BME280_pressure;Samples;Min_cycle;Max_cycle;Signal;HPM_P1;HPM_P2
2022/02/10 00:03:48;;;;;;;9.00;5.18;;;;;;;;;;5074335;28;20071;-45
2022/02/10 00:17:35;;;;;;;;;;;;;;;;;;5031824;28;20045;-45
2022/02/10 00:20:27;;;;;;;11.02;5.85;;;;;;;;;;5031652;28;19909;-45
2022/02/10 00:23:15;;;;;;;8.05;4.75;;;;;;;;;;5047371;28;20028;-44
2022/02/10 00:34:10;;;;;;;8.15;4.82;;;;;;;;;;5073275;28;20035;-45
2022/02/10 00:34:54;;;;;;;;;;;;;;;;;;5024736;28;20056;-45
2022/02/10 00:37:25;;;;;;;8.52;5.07;;;;;;;;;;5017807;28;20028;-45
2022/02/10 00:40:09;;;;;;;9.27;5.03;;;;;;;;;;5046898;28;20059;-45
2022/02/10 00:42:35;;;;;;;8.48;4.05;;;;;;;;;;5061194;28;20806;-44
2022/02/10 00:45:01;;;;;;;9.95;4.95;;;;;;;;;;5073059;28;20029;-45
2022/02/10 00:47:29;;;;;;;10.35;5.18;;;;;;;;;;5073491;28;20024;-44
2022/02/10 00:49:58;;;;;;;8.13;4.93;;;;;;;;;;5069972;28;20036;-45
2022/02/10 00:52:24;;;;;;;8.55;4.85;;;;;;;;;;5071040;28;20036;-45
2022/02/10 00:54:50;;;;;;;8.85;5.40;;;;;;;;;;5069074;28;20037;-45
2022/02/10 00:57:20;;;;;;;9.23;5.90;;;;;;;;;;5070057;28;22933;-45
2022/02/10 01:06:55;;;;;;;11.05;5.50;;;;;;;;;;5063119;28;20067;-45
2022/02/10 01:13:07;;;;;;;8.93;5.30;;;;;;;;;;5061877;28;20079;-45
2022/02/10 01:24:30;;;;;;;9.32;5.25;;;;;;;;;;5066122;28;20040;-45
2022/02/10 01:29:42;;;;;;;8.13;4.78;;;;;;;;;;5060197;28;20038;-46
2022/02/10 01:32:08;;;;;;;9.55;5.05;;;;;;;;;;5072111;28;20032;-44
2022/02/10 01:34:40;;;;;;;8.68;4.80;;;;;;;;;;5072685;28;20032;-45
2022/02/10 01:37:06;;;;;;;10.80;6.05;;;;;;;;;;5071889;28;20028;-45
2022/02/10 01:39:34;;;;;;;9.27;5.80;;;;;;;;;;5070335;28;20381;-47
2022/02/10 01:42:37;;;;;;;9.93;4.68;;;;;;;;;;5074712;28;20431;-45
2022/02/10 02:04:02;;;;;;;8.27;5.20;;;;;;;;;;5067376;28;20142;-47
2022/02/10 02:06:39;;;;;;;7.18;4.38;;;;;;;;;;5068783;28;20096;-46
2022/02/10 02:09:10;;;;;;;9.50;4.80;;;;;;;;;;5071728;28;20017;-45
2022/02/10 02:11:39;;;;;;;7.78;4.55;;;;;;;;;;5063525;28;20021;-48
2022/02/10 02:14:05;;;;;;;6.55;4.10;;;;;;;;;;5071328;28;20454;-45
2022/02/10 02:16:31;;;;;;;7.25;4.00;;;;;;;;;;5065082;28;20029;-47
2022/02/10 02:18:57;;;;;;;8.77;4.13;;;;;;;;;;5067035;28;20017;-45
2022/02/10 02:21:23;;;;;;;7.20;4.20;;;;;;;;;;5068056;28;20124;-48
2022/02/10 02:23:49;;;;;;;7.60;4.15;;;;;;;;;;5070922;28;20025;-46
2022/02/10 02:26:20;;;;;;;7.55;4.32;;;;;;;;;;5052043;28;20095;-45
2022/02/10 02:28:51;;;;;;;5.80;3.92;;;;;;;;;;5068698;28;20032;-46
2022/02/10 02:31:20;;;;;;;6.32;3.88;;;;;;;;;;5070526;28;20032;-45
2022/02/10 02:34:26;;;;;;;6.53;3.97;;;;;;;;;;5072836;28;20039;-46
2022/02/10 03:06:45;;;;;;;8.07;4.20;;;;;;;;;;5071490;28;20063;-45
2022/02/10 03:09:19;;;;;;;7.85;4.50;;;;;;;;;;5068436;28;20025;-48
2022/02/10 03:11:45;;;;;;;7.60;4.10;;;;;;;;;;5074606;28;20020;-51
2022/02/10 03:14:16;;;;;;;7.47;4.05;;;;;;;;;;5069621;28;20086;-46
2022/02/10 03:17:05;;;;;;;7.40;4.07;;;;;;;;;;5074806;28;20406;-47
2022/02/10 03:19:55;;;;;;;7.75;3.95;;;;;;;;;;5073893;28;20086;-46
2022/02/10 03:22:43;;;;;;;8.50;4.28;;;;;;;;;;5079742;28;20032;-47
2022/02/10 04:01:24;;;;;;;5.88;3.55;;;;;;;;;;5073790;28;20539;-45
2022/02/10 04:04:06;;;;;;;6.90;3.95;;;;;;;;;;5059870;28;20029;-47
2022/02/10 04:07:08;;;;;;;6.13;3.55;;;;;;;;;;5069343;28;20024;-45
2022/02/10 04:15:12;;;;;;;6.60;3.60;;;;;;;;;;5057317;28;20044;-46
2022/02/10 04:18:21;;;;;;;7.15;3.65;;;;;;;;;;5070742;28;20012;-46
2022/02/10 04:20:53;;;;;;;;;;;;;;;;;;5073143;28;20793;-44
2022/02/10 04:26:06;;;;;;;6.03;3.45;;;;;;;;;;5070115;28;20028;-47
2022/02/10 04:28:59;;;;;;;9.02;3.85;;;;;;;;;;5080522;28;20032;-45
2022/02/10 04:32:02;;;;;;;5.70;3.70;;;;;;;;;;5064453;28;20039;-45
2022/02/10 04:43:06;;;;;;;5.78;3.50;;;;;;;;;;5052977;28;20439;-45
2022/02/10 04:56:40;;;;;;;7.32;3.72;;;;;;;;;;5073082;28;20052;-46
2022/02/10 04:59:31;;;;;;;8.35;3.70;;;;;;;;;;5071069;28;20032;-44
2022/02/10 05:02:30;;;;;;;4.82;3.10;;;;;;;;;;5061198;28;20369;-46
2022/02/10 05:05:17;;;;;;;5.20;3.03;;;;;;;;;;5063923;28;20033;-45
2022/02/10 05:08:00;;;;;;;5.82;3.55;;;;;;;;;;5064994;28;20040;-45
2022/02/10 05:16:23;;;;;;;6.28;3.58;;;;;;;;;;5070630;28;20043;-45
2022/02/10 05:22:10;;;;;;;6.55;3.47;;;;;;;;;;5052116;28;20024;-47
2022/02/10 05:24:48;;;;;;;5.13;3.20;;;;;;;;;;5060892;28;20037;-45
2022/02/10 05:32:58;;;;;;;5.47;3.30;;;;;;;;;;5069565;28;20079;-45
2022/02/10 05:35:30;;;;;;;5.18;3.00;;;;;;;;;;5071875;28;20485;-46
2022/02/10 05:45:48;;;;;;;7.72;4.13;;;;;;;;;;5071833;28;20029;-46
2022/02/10 05:48:37;;;;;;;8.65;3.95;;;;;;;;;;5069201;28;20063;-46
2022/02/10 05:51:38;;;;;;;8.98;4.03;;;;;;;;;;5062907;28;20040;-45
2022/02/10 05:53:57;;;;;;;7.40;3.58;;;;;;;;;;5063571;28;20044;-47
2022/02/10 06:02:27;;;;;;;5.18;3.00;;;;;;;;;;5021319;28;20042;-46
2022/02/10 06:42:35;;;;;;;5.18;3.10;;;;;;;;;;5073305;28;20587;-47
2022/02/10 06:47:07;;;;;;;7.25;3.40;;;;;;;;;;5074156;28;20579;-46
2022/02/10 06:51:48;;;;;;;4.60;3.22;;;;;;;;;;5073513;28;20070;-45
2022/02/10 06:54:24;;;;;;;6.43;3.80;;;;;;;;;;5075682;28;20044;-47
2022/02/10 06:57:21;;;;;;;10.07;3.40;;;;;;;;;;5071749;28;20037;-45
2022/02/10 07:08:13;;;;;;;6.82;3.45;;;;;;;;;;5074057;28;20043;-46
2022/02/10 07:11:03;;;;;;;5.80;3.08;;;;;;;;;;5075094;28;20036;-45
2022/02/10 07:55:13;;;;;;;5.10;3.25;;;;;;;;;;5069998;28;20079;-45
2022/02/10 08:51:01;;;;;;;7.30;3.90;;;;;;;;;;5076779;28;20042;-45
2022/02/10 08:56:14;;;;;;;7.75;3.88;;;;;;;;;;5071622;28;20047;-45
2022/02/10 09:01:48;;;;;;;10.80;4.60;;;;;;;;;;5069081;28;20039;-46
2022/02/10 09:04:30;;;;;;;6.82;4.68;;;;;;;;;;5066241;28;20036;-49
2022/02/10 09:07:22;;;;;;;5.63;4.00;;;;;;;;;;5071179;28;20098;-46
2022/02/10 09:10:27;;;;;;;8.45;4.93;;;;;;;;;;5072668;28;20036;-45
2022/02/10 09:21:18;;;;;;;10.55;4.35;;;;;;;;;;5072558;28;20040;-47
2022/02/10 09:24:56;;;;;;;10.40;4.63;;;;;;;;;;5067742;28;20041;-48
2022/02/10 09:50:48;;;;;;;10.15;4.05;;;;;;;;;;5072308;28;20560;-45
2022/02/10 09:55:23;;;;;;;14.55;4.07;;;;;;;;;;5071813;28;20395;-49
2022/02/10 09:57:55;;;;;;;8.85;3.88;;;;;;;;;;5059022;28;20025;-49
2022/02/10 10:00:47;;;;;;;8.35;3.47;;;;;;;;;;5064511;28;20450;-49
2022/02/10 10:03:24;;;;;;;4.57;2.60;;;;;;;;;;5056282;28;20434;-48
2022/02/10 10:06:27;;;;;;;5.22;2.75;;;;;;;;;;5057497;28;20039;-45
2022/02/10 10:12:29;;;;;;;6.43;3.10;;;;;;;;;;5061419;28;20733;-47
2022/02/10 10:18:20;;;;;;;5.65;3.33;;;;;;;;;;5059472;28;20063;-46
2022/02/10 10:21:11;;;;;;;6.35;3.38;;;;;;;;;;5061102;28;20041;-46
2022/02/10 10:26:27;;;;;;;7.18;3.28;;;;;;;;;;5065043;28;20032;-51
2022/02/10 10:52:11;;;;;;;10.38;3.58;;;;;;;;;;5056617;28;20049;-45
2022/02/10 10:54:54;;;;;;;6.03;3.83;;;;;;;;;;5064316;28;20476;-46
2022/02/10 10:57:27;;;;;;;6.40;3.13;;;;;;;;;;5064527;28;20031;-47
2022/02/10 11:38:46;;;;;;;8.77;4.53;;;;;;;;;;5058125;28;20039;-45
2022/02/10 11:44:05;;;;;;;10.82;4.03;;;;;;;;;;5069667;28;20576;-45
2022/02/10 11:47:13;;;;;;;8.15;4.43;;;;;;;;;;5073115;28;20032;-46
2022/02/10 12:37:20;;;;;;;11.15;5.07;;;;;;;;;;5079748;28;20036;-47
2022/02/10 14:09:05;;;;;;;0.82;0.52;;;;;;;;;;5060342;28;20513;-45
2022/02/10 14:09:26;;;;;;;2.00;0.65;;;;;;;;;;5062987;28;20399;-47
2022/02/10 14:12:48;;;;;;;2.58;0.47;;;;;;;;;;5065232;28;20115;-49
2022/02/10 14:15:00;;;;;;;0.57;0.40;;;;;;;;;;5057144;28;20025;-45
2022/02/10 14:17:42;;;;;;;2.17;0.45;;;;;;;;;;5058518;28;20021;-44
2022/02/10 14:20:59;;;;;;;0.60;0.35;;;;;;;;;;5070545;28;20086;-45
2022/02/10 14:23:17;;;;;;;0.32;0.32;;;;;;;;;;5064532;28;20029;-45
2022/02/10 14:25:57;;;;;;;0.60;0.40;;;;;;;;;;5069085;28;20104;-45
2022/02/10 14:28:24;;;;;;;0.40;0.40;;;;;;;;;;5079209;28;20460;-45
2022/02/10 14:30:50;;;;;;;1.40;0.47;;;;;;;;;;5068083;28;20042;-45
2022/02/10 14:33:23;;;;;;;0.73;0.47;;;;;;;;;;5069578;28;20062;-45
2022/02/10 14:35:55;;;;;;;0.25;0.25;;;;;;;;;;5058315;28;20067;-47
2022/02/10 14:38:49;;;;;;;0.70;0.40;;;;;;;;;;5061410;28;20112;-47
2022/02/10 14:41:56;;;;;;;0.40;0.32;;;;;;;;;;5059408;28;20029;-46
2022/02/10 15:35:59;;;;;;;1.23;0.75;;;;;;;;;;5067159;28;20443;-45
2022/02/10 15:53:28;;;;;;;0.50;0.43;;;;;;;;;;5067322;28;20047;-46
2022/02/10 15:56:38;;;;;;;2.25;0.50;;;;;;;;;;5067204;28;20032;-47
2022/02/10 16:13:42;;;;;;;1.45;0.70;;;;;;;;;;5061537;28;20044;-51
2022/02/10 16:18:41;;;;;;;4.03;0.80;;;;;;;;;;5027024;28;20498;-45
2022/02/10 16:21:07;;;;;;;2.45;0.98;;;;;;;;;;5067252;28;20090;-46
2022/02/10 16:23:35;;;;;;;2.58;0.70;;;;;;;;;;5067494;28;20025;-47
2022/02/10 16:26:11;;;;;;;1.30;0.70;;;;;;;;;;5060145;28;20025;-46
2022/02/10 16:28:40;;;;;;;1.65;1.08;;;;;;;;;;5059389;28;20022;-46
2022/02/10 16:31:06;;;;;;;2.47;1.02;;;;;;;;;;5059572;28;20179;-45
2022/02/10 16:33:34;;;;;;;1.23;1.00;;;;;;;;;;5060211;28;20039;-46
2022/02/10 16:36:00;;;;;;;1.38;1.10;;;;;;;;;;5062664;28;20087;-46
2022/02/10 16:38:27;;;;;;;2.22;1.20;;;;;;;;;;5066871;28;20024;-46
2022/02/10 16:40:55;;;;;;;1.90;1.30;;;;;;;;;;5063017;28;20029;-47
2022/02/10 16:43:21;;;;;;;5.18;1.50;;;;;;;;;;5061033;28;20025;-52
2022/02/10 16:45:47;;;;;;;2.83;1.30;;;;;;;;;;5061277;28;20033;-48
2022/02/10 16:48:13;;;;;;;5.13;1.15;;;;;;;;;;5063476;28;20047;-46
2022/02/10 16:50:43;;;;;;;2.75;1.10;;;;;;;;;;5060158;28;20029;-49
2022/02/10 16:53:11;;;;;;;4.60;1.35;;;;;;;;;;5065915;28;20037;-49
2022/02/10 16:55:47;;;;;;;2.40;1.10;;;;;;;;;;5056346;28;20036;-53
2022/02/10 16:58:25;;;;;;;3.45;1.20;;;;;;;;;;5069633;28;20120;-52
2022/02/10 17:01:17;;;;;;;2.22;1.55;;;;;;;;;;5064861;28;20035;-49
2022/02/10 17:17:30;;;;;;;3.60;1.70;;;;;;;;;;5064155;28;20136;-49
2022/02/10 17:20:28;;;;;;;3.83;1.83;;;;;;;;;;5070911;28;20031;-48
2022/02/10 17:25:44;;;;;;;3.50;1.80;;;;;;;;;;5059736;28;20171;-48
2022/02/10 17:28:11;;;;;;;3.47;2.05;;;;;;;;;;5063522;28;20098;-48
2022/02/10 17:33:32;;;;;;;3.03;2.03;;;;;;;;;;5064647;28;20051;-47
2022/02/10 17:36:09;;;;;;;4.10;2.28;;;;;;;;;;5056579;28;20031;-49
2022/02/10 17:44:09;;;;;;;5.70;2.50;;;;;;;;;;5063165;28;20086;-47
2022/02/10 17:46:56;;;;;;;8.90;3.85;;;;;;;;;;5067425;28;20064;-49
2022/02/10 17:52:16;;;;;;;5.40;2.92;;;;;;;;;;5065515;28;20134;-47
2022/02/10 17:54:43;;;;;;;4.88;2.78;;;;;;;;;;5066396;28;20021;-50
2022/02/10 17:57:09;;;;;;;4.70;2.95;;;;;;;;;;5066185;28;20242;-50
2022/02/10 17:59:35;;;;;;;4.38;2.42;;;;;;;;;;5067830;28;20024;-52
2022/02/10 18:02:02;;;;;;;4.25;2.40;;;;;;;;;;5067117;28;20025;-51
2022/02/10 18:04:28;;;;;;;5.05;2.58;;;;;;;;;;5063878;28;20032;-49
2022/02/10 18:06:56;;;;;;;4.63;2.95;;;;;;;;;;5070582;28;20024;-48
2022/02/10 18:10:00;;;;;;;5.22;2.53;;;;;;;;;;5070197;28;20071;-51
2022/02/10 18:13:15;;;;;;;5.78;2.50;;;;;;;;;;5070936;28;20044;-48
2022/02/10 18:15:33;;;;;;;;;;;;;;;;;;5070547;28;20033;-47
2022/02/10 18:18:04;;;;;;;4.03;2.10;;;;;;;;;;5074159;28;19908;-48
2022/02/10 18:20:38;;;;;;;7.57;2.60;;;;;;;;;;5070236;28;20037;-51
2022/02/10 18:23:16;;;;;;;4.07;2.03;;;;;;;;;;5069958;28;20108;-52
2022/02/10 18:25:50;;;;;;;3.40;1.85;;;;;;;;;;5061423;28;20028;-53
2022/02/10 18:28:25;;;;;;;5.72;1.95;;;;;;;;;;5075478;28;20024;-51
2022/02/10 18:33:27;;;;;;;3.40;2.13;;;;;;;;;;5074201;28;20041;-51
2022/02/10 19:06:28;;;;;;;2.83;1.80;;;;;;;;;;5071351;28;20043;-48
2022/02/10 19:09:00;;;;;;;3.05;2.00;;;;;;;;;;5069141;28;20079;-49
2022/02/10 19:11:26;;;;;;;3.53;2.30;;;;;;;;;;5070458;28;20037;-50
2022/02/10 19:13:55;;;;;;;3.92;1.88;;;;;;;;;;5072848;28;20082;-48
2022/02/10 19:16:22;;;;;;;4.07;2.22;;;;;;;;;;5067127;28;20087;-47
2022/02/10 19:18:48;;;;;;;2.95;1.98;;;;;;;;;;5071464;28;20040;-47
2022/02/10 19:21:14;;;;;;;3.53;1.90;;;;;;;;;;5068289;28;20021;-48
2022/02/10 19:23:40;;;;;;;4.13;2.30;;;;;;;;;;5067678;28;20456;-49
2022/02/10 19:26:07;;;;;;;6.40;2.15;;;;;;;;;;5064573;28;20033;-47
2022/02/10 19:28:33;;;;;;;9.95;2.78;;;;;;;;;;5072777;28;20029;-48
2022/02/10 19:31:01;;;;;;;5.80;2.28;;;;;;;;;;5061315;28;20150;-49
2022/02/10 19:33:27;;;;;;;4.50;2.50;;;;;;;;;;5066467;28;20035;-47
2022/02/10 19:35:53;;;;;;;6.05;2.53;;;;;;;;;;5065034;28;20029;-52
2022/02/10 19:38:22;;;;;;;4.47;2.67;;;;;;;;;;5067789;28;20021;-50
2022/02/10 19:40:55;;;;;;;4.35;2.42;;;;;;;;;;5064777;28;20025;-50
2022/02/10 19:43:22;;;;;;;9.85;3.35;;;;;;;;;;5067916;28;20036;-53
2022/02/10 19:45:48;;;;;;;5.25;2.65;;;;;;;;;;5069868;28;20492;-52
2022/02/10 19:48:15;;;;;;;9.35;3.90;;;;;;;;;;5074046;28;20032;-50
2022/02/10 19:50:42;;;;;;;6.00;3.38;;;;;;;;;;5066023;28;20032;-50
2022/02/10 19:53:10;;;;;;;7.13;3.45;;;;;;;;;;5060417;28;20036;-51
2022/02/10 19:55:38;;;;;;;5.60;3.40;;;;;;;;;;5067706;28;20064;-50
2022/02/10 19:58:08;;;;;;;5.70;3.40;;;;;;;;;;5068355;28;20025;-48
2022/02/10 20:00:39;;;;;;;6.75;3.60;;;;;;;;;;5064185;28;20473;-49
2022/02/10 20:03:14;;;;;;;6.90;3.50;;;;;;;;;;5062455;28;20028;-50
2022/02/10 20:05:45;;;;;;;8.73;3.83;;;;;;;;;;5064904;28;20108;-48
2022/02/10 20:08:12;;;;;;;9.40;3.72;;;;;;;;;;5073889;28;20218;-47
2022/02/10 20:10:38;;;;;;;8.18;4.00;;;;;;;;;;5064126;28;20049;-48
2022/02/10 20:13:04;;;;;;;10.30;4.20;;;;;;;;;;5065215;28;20029;-48
2022/02/10 20:15:33;;;;;;;8.98;4.28;;;;;;;;;;5069501;28;20035;-48
2022/02/10 20:18:01;;;;;;;7.75;4.43;;;;;;;;;;5072591;28;20036;-48
2022/02/10 20:20:27;;;;;;;7.72;3.60;;;;;;;;;;5061905;28;20028;-48
2022/02/10 20:22:53;;;;;;;7.80;4.10;;;;;;;;;;5068127;28;20038;-47
2022/02/10 20:25:19;;;;;;;8.80;4.20;;;;;;;;;;5065279;28;20406;-50
2022/02/10 20:27:45;;;;;;;8.50;4.07;;;;;;;;;;5065730;28;20043;-48
2022/02/10 20:30:12;;;;;;;10.63;4.88;;;;;;;;;;5064112;28;20427;-52
2022/02/10 20:32:38;;;;;;;8.80;4.78;;;;;;;;;;5064317;28;20036;-52
2022/02/10 20:35:05;;;;;;;10.02;4.70;;;;;;;;;;5063207;28;20080;-55
2022/02/10 20:37:31;;;;;;;10.38;4.97;;;;;;;;;;5062441;28;20483;-51
2022/02/10 20:39:57;;;;;;;11.38;5.68;;;;;;;;;;5061116;28;20029;-50
2022/02/10 20:42:24;;;;;;;10.98;5.43;;;;;;;;;;5068062;28;20760;-54
2022/02/10 20:44:54;;;;;;;7.75;4.35;;;;;;;;;;5069177;28;20492;-50
2022/02/10 20:47:23;;;;;;;10.68;4.43;;;;;;;;;;5069324;28;20032;-51
2022/02/10 20:49:49;;;;;;;10.55;5.80;;;;;;;;;;5069408;28;20017;-55
2022/02/10 20:52:15;;;;;;;12.18;5.25;;;;;;;;;;5062397;28;20044;-49
2022/02/10 20:54:42;;;;;;;8.40;5.53;;;;;;;;;;5070045;28;20024;-50
2022/02/10 20:57:08;;;;;;;13.02;5.28;;;;;;;;;;5065721;28;20116;-51
2022/02/10 20:59:40;;;;;;;9.75;5.22;;;;;;;;;;5072049;28;20025;-50
2022/02/10 21:02:15;;;;;;;11.80;5.60;;;;;;;;;;5068621;28;20016;-52
2022/02/10 21:04:56;;;;;;;11.80;6.20;;;;;;;;;;5059522;28;20020;-48
2022/02/10 21:07:36;;;;;;;10.13;5.35;;;;;;;;;;5071196;28;20028;-48
2022/02/10 21:10:05;;;;;;;11.52;5.65;;;;;;;;;;5060131;28;20025;-50
2022/02/10 21:12:36;;;;;;;12.93;5.68;;;;;;;;;;5063130;28;20436;-50
2022/02/10 21:15:05;;;;;;;15.10;6.43;;;;;;;;;;5060540;28;20021;-52
2022/02/10 21:17:31;;;;;;;9.60;5.15;;;;;;;;;;5070018;28;20028;-49
2022/02/10 21:20:03;;;;;;;11.95;5.40;;;;;;;;;;5067026;28;20032;-49
2022/02/10 21:22:32;;;;;;;12.38;5.72;;;;;;;;;;5062788;28;20020;-48
2022/02/10 21:25:10;;;;;;;15.38;5.95;;;;;;;;;;5064939;28;20023;-52
2022/02/10 21:27:42;;;;;;;10.27;5.43;;;;;;;;;;5062134;28;20086;-52
2022/02/10 21:30:08;;;;;;;11.23;4.68;;;;;;;;;;5064199;28;20025;-49
2022/02/10 21:32:45;;;;;;;11.63;5.53;;;;;;;;;;5062225;28;20492;-48
2022/02/10 21:35:53;;;;;;;13.60;5.40;;;;;;;;;;5068974;28;20029;-52
2022/02/10 21:38:15;;;;;;;8.25;4.78;;;;;;;;;;5066440;28;20033;-50
2022/02/10 21:47:23;;;;;;;10.48;5.07;;;;;;;;;;5059322;28;20067;-51
2022/02/10 22:01:04;;;;;;;8.85;4.20;;;;;;;;;;5065515;28;20074;-49
2022/02/10 22:03:33;;;;;;;11.52;4.22;;;;;;;;;;5068786;28;20124;-50
2022/02/10 22:19:17;;;;;;;2.20;1.55;;;;;;;;;;5064441;28;20117;-53
2022/02/10 22:21:50;;;;;;;2.90;1.30;;;;;;;;;;5055054;28;20029;-53
2022/02/10 22:24:17;;;;;;;;;;;;;;;;;;5062566;28;20025;-53
2022/02/10 22:26:44;;;;;;;2.50;1.13;;;;;;;;;;5068274;28;19916;-51
2022/02/10 22:32:49;;;;;;;7.18;1.38;;;;;;;;;;5058782;28;20155;-51
2022/02/10 22:34:37;;;;;;;1.60;1.00;;;;;;;;;;5053897;28;20044;-51
2022/02/10 22:37:06;;;;;;;2.40;1.20;;;;;;;;;;5064001;28;20041;-53
2022/02/10 22:39:37;;;;;;;3.83;1.20;;;;;;;;;;5058906;28;20060;-52
2022/02/10 22:42:03;;;;;;;3.70;1.10;;;;;;;;;;5058531;28;20078;-48
2022/02/10 22:44:29;;;;;;;5.20;1.45;;;;;;;;;;5069261;28;20028;-54
2022/02/10 22:46:55;;;;;;;2.75;1.35;;;;;;;;;;5071651;28;20368;-51
2022/02/10 22:49:21;;;;;;;3.33;0.98;;;;;;;;;;5065718;28;20054;-53
2022/02/10 22:51:47;;;;;;;4.25;1.15;;;;;;;;;;5075632;28;20041;-49
2022/02/10 22:54:13;;;;;;;2.88;1.05;;;;;;;;;;5062248;28;20040;-51
2022/02/10 22:56:40;;;;;;;3.03;0.80;;;;;;;;;;5057569;28;20040;-50
2022/02/10 22:59:08;;;;;;;1.27;0.75;;;;;;;;;;5070214;28;20028;-51
2022/02/10 23:01:34;;;;;;;3.08;1.05;;;;;;;;;;5067555;28;20020;-50
2022/02/10 23:04:00;;;;;;;2.38;1.10;;;;;;;;;;5067117;28;20041;-49
2022/02/10 23:06:26;;;;;;;1.55;1.00;;;;;;;;;;5066834;28;20021;-53
2022/02/10 23:08:53;;;;;;;1.52;0.77;;;;;;;;;;5057427;28;20040;-51
2022/02/10 23:11:27;;;;;;;1.95;0.85;;;;;;;;;;5072965;28;20342;-51
2022/02/10 23:13:54;;;;;;;2.35;0.90;;;;;;;;;;5058293;28;20044;-49
2022/02/10 23:16:20;;;;;;;1.80;0.90;;;;;;;;;;5064148;28;20078;-52
2022/02/10 23:18:46;;;;;;;0.93;0.75;;;;;;;;;;5068169;28;20024;-49
2022/02/10 23:21:14;;;;;;;3.20;1.15;;;;;;;;;;5073661;28;20012;-51
2022/02/10 23:23:43;;;;;;;2.15;1.40;;;;;;;;;;5073676;28;20027;-50
2022/02/10 23:26:09;;;;;;;2.33;1.13;;;;;;;;;;5071599;28;20088;-49
2022/02/10 23:28:36;;;;;;;2.80;0.82;;;;;;;;;;5071793;28;20464;-53
2022/02/10 23:31:03;;;;;;;2.53;1.08;;;;;;;;;;5070156;28;20033;-49
2022/02/10 23:33:33;;;;;;;2.30;1.10;;;;;;;;;;5062160;28;20135;-51
2022/02/10 23:43:50;;;;;;;1.27;0.70;;;;;;;;;;5062712;28;20495;-49
2022/02/10 23:46:17;;;;;;;2.78;0.95;;;;;;;;;;5083825;28;20033;-48
2022/02/10 23:48:44;;;;;;;2.80;0.75;;;;;;;;;;5056975;28;20123;-48
2022/02/10 23:51:10;;;;;;;3.67;1.10;;;;;;;;;;5071386;28;20032;-49
2022/02/10 23:53:36;;;;;;;1.75;1.00;;;;;;;;;;5066271;28;20392;-48
2022/02/10 23:56:06;;;;;;;2.08;0.80;;;;;;;;;;5073927;28;20044;-53
2022/02/10 23:58:44;;;;;;;4.93;1.23;;;;;;;;;;5075736;28;20036;-48
